Time;durP1;ratioP1;P1;durP2;ratioP2;P2;SDS_P1;SDS_P2;PMS_P1;PMS_P2;Temp;Humidity;BMP_temperature;BMP_pressure;BME280_temperature;BME280_humidity;BME280_pressure;Samples;Min_cycle;Max_cycle;Signal;HPM_P1;HPM_P2
2021/09/13 00:01:21;;;;;;;;;;;;;;;15.49;70.56;99447.28;4904189;29;20518;-75
2021/09/13 00:03:47;;;;;;;;;;;;;;;15.50;70.77;99449.00;4905145;29;19924;-77
2021/09/13 00:06:14;;;;;;;;;;;;;;;15.49;70.68;99444.66;4886886;29;21364;-77
2021/09/13 00:08:40;;;;;;;;;;;;;;;15.47;70.80;99444.69;4903734;29;19923;-77
2021/09/13 00:11:05;;;;;;;;;;;;;;;15.46;70.73;99445.63;4902262;29;20022;-74
2021/09/13 00:13:31;;;;;;;;;;;;;;;15.46;70.85;99447.41;4887558;29;20009;-75
2021/09/13 00:15:56;;;;;;;;;;;;;;;15.45;70.76;99446.53;4885611;29;19974;-76
2021/09/13 00:18:22;;;;;;;;;;;;;;;15.46;71.09;99443.00;4873965;29;20368;-76
2021/09/13 00:20:49;;;;;;;;;;;;;;;15.45;70.70;99436.03;4875125;29;19926;-76
2021/09/13 00:23:14;;;;;;;;;;;;;;;15.47;70.86;99434.22;4889284;29;19927;-77
2021/09/13 00:25:41;;;;;;;;;;;;;;;15.49;70.94;99436.81;4872384;29;19949;-74
2021/09/13 00:28:11;;;;;;;;;;;;;;;15.49;70.92;99432.41;4886753;29;20091;-74
2021/09/13 00:30:37;;;;;;;;;;;;;;;15.47;70.78;99428.97;4903913;29;19986;-76
2021/09/13 00:33:03;;;;;;;;;;;;;;;15.46;71.14;99436.91;4887180;29;20287;-75
2021/09/13 00:35:29;;;;;;;;;;;;;;;15.43;70.96;99426.53;4903668;29;20442;-77
2021/09/13 00:37:56;;;;;;;;;;;;;;;15.40;70.95;99426.63;4886913;29;19919;-75
2021/09/13 00:40:23;;;;;;;;;;;;;;;15.37;70.93;99427.59;4886092;29;19926;-75
2021/09/13 00:42:51;;;;;;;;;;;;;;;15.36;71.26;99431.13;4903510;29;20493;-75
2021/09/13 00:45:19;;;;;;;;;;;;;;;15.35;71.23;99432.03;4903748;29;19923;-77
2021/09/13 00:47:44;;;;;;;;;;;;;;;15.33;71.16;99419.00;4887011;29;20355;-74
2021/09/13 00:50:10;;;;;;;;;;;;;;;15.31;71.40;99420.81;4903927;29;19930;-76
2021/09/13 00:52:36;;;;;;;;;;;;;;;15.31;71.21;99425.19;4902672;29;19924;-76
2021/09/13 00:55:03;;;;;;;;;;;;;;;15.30;71.22;99426.09;4890681;29;19974;-74
2021/09/13 00:57:29;;;;;;;;;;;;;;;15.27;71.18;99420.94;4921090;29;19961;-76
2021/09/13 00:59:55;;;;;;;;;;;;;;;15.27;71.25;99416.56;4920448;29;19923;-74
2021/09/13 01:02:21;;;;;;;;;;;;;;;15.27;71.47;99415.69;4911252;29;19927;-76
2021/09/13 01:04:47;;;;;;;;;;;;;;;15.27;71.39;99416.56;4903909;29;21011;-77
2021/09/13 01:07:13;;;;;;;;;;;;;;;15.26;71.45;99411.38;4891023;29;19987;-79
2021/09/13 01:09:38;;;;;;;;;;;;;;;15.27;71.47;99411.34;4878842;29;19922;-77
2021/09/13 01:12:07;;;;;;;;;;;;;;;15.28;71.55;99412.16;4893679;29;19923;-75
2021/09/13 01:14:40;;;;;;;;;;;;;;;15.28;71.82;99402.56;4894772;29;19991;-75
2021/09/13 01:17:06;;;;;;;;;;;;;;;15.29;71.49;99406.03;4894272;29;19955;-76
2021/09/13 01:19:34;;;;;;;;;;;;;;;15.28;71.79;99401.69;4894035;29;20022;-76
2021/09/13 01:22:01;;;;;;;;;;;;;;;15.27;71.78;99400.84;4890607;29;19952;-78
2021/09/13 01:24:28;;;;;;;;;;;;;;;15.27;71.70;99394.72;4898657;29;19963;-74
2021/09/13 01:27:05;;;;;;;;;;;;;;;15.27;72.00;99395.59;4897321;29;19918;-76
2021/09/13 01:29:31;;;;;;;;;;;;;;;15.23;71.72;99406.25;4901792;29;19919;-76
2021/09/13 01:31:57;;;;;;;;;;;;;;;15.19;71.78;99403.75;4886634;29;19974;-75
2021/09/13 01:34:24;;;;;;;;;;;;;;;15.19;71.72;99397.63;4890389;29;19927;-76
2021/09/13 01:36:53;;;;;;;;;;;;;;;15.17;71.87;99395.06;4895186;29;20022;-76
2021/09/13 01:39:19;;;;;;;;;;;;;;;15.16;71.76;99393.34;4907582;29;19973;-76
2021/09/13 01:41:44;;;;;;;;;;;;;;;15.15;72.05;99402.13;4890173;29;19934;-76
2021/09/13 01:44:11;;;;;;;;;;;;;;;15.12;72.11;99391.75;4863376;29;20034;-75
2021/09/13 01:46:37;;;;;;;;;;;;;;;15.11;72.19;99394.44;4878038;29;19919;-75
2021/09/13 01:49:04;;;;;;;;;;;;;;;15.09;72.25;99385.75;4891444;29;19943;-78
2021/09/13 01:51:30;;;;;;;;;;;;;;;15.08;72.35;99389.28;4891428;29;19919;-77
2021/09/13 01:53:55;;;;;;;;;;;;;;;15.05;72.36;99390.22;4872371;29;19930;-76
2021/09/13 01:56:21;;;;;;;;;;;;;;;15.05;72.19;99385.88;4871961;29;19945;-75
2021/09/13 01:58:46;;;;;;;;;;;;;;;15.03;72.21;99385.06;4890448;29;19926;-75
2021/09/13 02:01:12;;;;;;;;;;;;;;;15.02;72.41;99380.72;4886295;29;19919;-75
2021/09/13 02:03:40;;;;;;;;;;;;;;;15.02;72.61;99378.09;4885133;29;20387;-78
2021/09/13 02:06:06;;;;;;;;;;;;;;;15.01;72.40;99383.38;4874138;29;19926;-76
2021/09/13 02:08:32;;;;;;;;;;;;;;;15.03;72.71;99374.56;4886444;29;19918;-76
2021/09/13 02:10:59;;;;;;;;;;;;;;;15.05;72.75;99374.50;4885638;29;20350;-78
2021/09/13 02:13:25;;;;;;;;;;;;;;;15.03;72.66;99368.47;4898439;29;19943;-76
2021/09/13 02:15:51;;;;;;;;;;;;;;;15.03;72.53;99356.22;4874063;29;20025;-76
2021/09/13 02:18:20;;;;;;;;;;;;;;;15.03;72.42;99356.22;4885103;29;19930;-76
2021/09/13 02:20:52;;;;;;;;;;;;;;;15.02;72.76;99359.75;4883083;29;19926;-76
2021/09/13 02:23:18;;;;;;;;;;;;;;;15.00;72.62;99355.50;4871024;29;20018;-76
2021/09/13 02:25:44;;;;;;;;;;;;;;;14.99;72.73;99357.25;4886055;29;20022;-76
2021/09/13 02:28:11;;;;;;;;;;;;;;;14.96;72.70;99359.13;4873355;29;19930;-77
2021/09/13 02:30:36;;;;;;;;;;;;;;;14.94;73.03;99360.94;4868913;29;19919;-78
2021/09/13 02:33:02;;;;;;;;;;;;;;;14.92;72.68;99358.34;4885669;29;20354;-77
2021/09/13 02:35:29;;;;;;;;;;;;;;;14.91;73.02;99359.25;4868961;29;19919;-77
2021/09/13 02:37:55;;;;;;;;;;;;;;;14.90;73.07;99357.53;4873567;29;19923;-78
2021/09/13 02:40:21;;;;;;;;;;;;;;;14.87;72.94;99365.53;4882313;29;20069;-77
2021/09/13 02:42:49;;;;;;;;;;;;;;;14.82;73.19;99365.66;4887369;29;20043;-77
2021/09/13 02:45:15;;;;;;;;;;;;;;;14.81;72.98;99355.25;4906999;29;19978;-76
2021/09/13 02:47:42;;;;;;;;;;;;;;;14.81;73.35;99357.88;4889725;29;19973;-78
2021/09/13 02:50:09;;;;;;;;;;;;;;;14.79;73.27;99346.59;4884011;29;19930;-77
2021/09/13 02:52:35;;;;;;;;;;;;;;;14.80;73.47;99353.53;4884725;29;21382;-76
2021/09/13 02:55:02;;;;;;;;;;;;;;;14.79;73.26;99344.81;4900564;29;19923;-79
2021/09/13 02:57:27;;;;;;;;;;;;;;;14.82;73.54;99343.88;4878513;29;19923;-76
2021/09/13 02:59:53;;;;;;;;;;;;;;;14.82;73.39;99344.72;4872435;29;19915;-77
2021/09/13 03:02:19;;;;;;;;;;;;;;;14.82;73.31;99346.50;4888185;29;19927;-78
2021/09/13 03:04:45;;;;;;;;;;;;;;;14.80;73.50;99338.66;4875780;29;19946;-75
2021/09/13 03:07:13;;;;;;;;;;;;;;;14.80;73.53;99332.59;4908873;29;19986;-77
2021/09/13 03:09:39;;;;;;;;;;;;;;;14.81;73.64;99329.91;4876385;29;21630;-75
2021/09/13 03:12:06;;;;;;;;;;;;;;;14.83;73.66;99329.88;4885855;29;20398;-77
2021/09/13 03:14:32;;;;;;;;;;;;;;;14.87;73.12;99339.34;4879510;29;19923;-76
2021/09/13 03:16:58;;;;;;;;;;;;;;;14.86;73.59;99333.22;4901273;29;19929;-77
2021/09/13 03:19:23;;;;;;;;;;;;;;;14.90;73.63;99328.72;4855665;29;19923;-74
2021/09/13 03:21:49;;;;;;;;;;;;;;;14.94;73.71;99332.13;4884538;29;19923;-76
2021/09/13 03:24:15;;;;;;;;;;;;;;;14.98;73.56;99331.13;4886330;29;20006;-75
2021/09/13 03:26:41;;;;;;;;;;;;;;;15.01;73.43;99324.00;4871626;29;19923;-76
2021/09/13 03:29:07;;;;;;;;;;;;;;;15.04;73.59;99321.28;4887231;29;20411;-76
2021/09/13 03:31:33;;;;;;;;;;;;;;;15.11;73.62;99324.53;4898705;29;19926;-77
2021/09/13 03:33:59;;;;;;;;;;;;;;;15.16;73.66;99324.34;4900125;29;19977;-77
2021/09/13 03:36:24;;;;;;;;;;;;;;;15.21;73.61;99323.31;4873110;29;20047;-76
2021/09/13 03:38:50;;;;;;;;;;;;;;;15.25;73.45;99321.41;4887290;29;19919;-77
2021/09/13 03:41:18;;;;;;;;;;;;;;;15.31;73.44;99322.94;4883022;29;19965;-76
2021/09/13 03:43:43;;;;;;;;;;;;;;;15.36;73.58;99321.03;4871315;29;20014;-76
2021/09/13 03:46:09;;;;;;;;;;;;;;;15.44;73.70;99315.50;4887592;29;20018;-78
2021/09/13 03:48:42;;;;;;;;;;;;;;;15.54;73.41;99319.50;4884584;29;20018;-76
2021/09/13 03:51:08;;;;;;;;;;;;;;;15.60;73.23;99316.63;4872291;29;20025;-76
2021/09/13 03:53:34;;;;;;;;;;;;;;;15.62;73.14;99314.81;4883164;29;19923;-77
2021/09/13 03:56:03;;;;;;;;;;;;;;;15.64;73.28;99310.38;4886517;29;20953;-76
2021/09/13 03:58:30;;;;;;;;;;;;;;;15.66;73.08;99310.34;4883955;29;20077;-77
2021/09/13 04:00:55;;;;;;;;;;;;;;;15.68;72.73;99311.09;4888150;29;20483;-76
2021/09/13 04:03:31;;;;;;;;;;;;;;;15.71;73.01;99310.16;4875593;29;19995;-76
2021/09/13 04:05:58;;;;;;;;;;;;;;;15.73;73.10;99309.16;4874002;29;19939;-77
2021/09/13 04:09:38;;;;;;;;;;;;;;;15.80;73.11;99309.78;4904981;29;19919;-75
2021/09/13 04:11:54;;;;;;;;;;;;;;;15.81;72.99;99307.13;4892387;29;19918;-76
2021/09/13 04:14:46;;;;;;;;;;;;;;;15.87;72.91;99311.31;4903062;29;20180;-75
2021/09/13 04:17:33;;;;;;;;;;;;;;;15.91;72.82;99307.66;4893482;29;19927;-76
2021/09/13 04:20:22;;;;;;;;;;;;;;;15.95;72.99;99309.25;4895161;29;19966;-78
2021/09/13 04:23:03;;;;;;;;;;;;;;;16.00;72.68;99306.44;4892352;29;20314;-76
2021/09/13 04:25:35;;;;;;;;;;;;;;;16.06;72.48;99310.56;4901994;29;20647;-75
2021/09/13 04:28:13;;;;;;;;;;;;;;;16.13;72.79;99306.81;4874446;29;19927;-78
2021/09/13 04:30:54;;;;;;;;;;;;;;;16.22;72.44;99308.22;4888276;29;19925;-76
2021/09/13 04:33:31;;;;;;;;;;;;;;;16.33;72.47;99303.38;4892557;29;19990;-76
2021/09/13 04:36:25;;;;;;;;;;;;;;;16.39;72.36;99308.38;4878772;29;19923;-76
2021/09/13 04:39:25;;;;;;;;;;;;;;;16.49;71.97;99305.38;4891029;29;19923;-76
2021/09/13 04:42:17;;;;;;;;;;;;;;;16.56;72.02;99302.44;4873648;29;20291;-76
2021/09/13 04:45:07;;;;;;;;;;;;;;;16.74;71.68;99299.94;4875064;29;19920;-77
2021/09/13 04:47:55;;;;;;;;;;;;;;;16.93;71.78;99288.66;4878883;29;19966;-77
2021/09/13 04:50:35;;;;;;;;;;;;;;;17.20;71.50;99286.63;4895819;29;19965;-76
2021/09/13 04:53:17;;;;;;;;;;;;;;;17.54;71.05;99281.63;4912237;29;19919;-78
2021/09/13 04:55:43;;;;;;;;;;;;;;;18.18;70.68;99288.28;4881946;29;19918;-75
2021/09/13 04:58:09;;;;;;;;;;;;;;;18.93;70.01;99279.31;4891230;29;19966;-75
2021/09/13 05:00:34;;;;;;;;;;;;;;;20.05;68.35;99282.16;4897168;29;19942;-79
2021/09/13 05:03:03;;;;;;;;;;;;;;;21.12;67.64;99268.03;4878217;29;19946;-78
2021/09/13 05:05:31;;;;;;;;;;;;;;;21.90;66.31;99261.47;4906834;29;19922;-77
2021/09/13 05:07:57;;;;;;;;;;;;;;;22.26;64.36;99259.97;4880005;29;19923;-76
2021/09/13 05:10:23;;;;;;;;;;;;;;;22.51;63.75;99255.72;4890351;29;19925;-77
2021/09/13 05:12:50;;;;;;;;;;;;;;;23.31;62.87;99253.84;4891271;29;19921;-78
2021/09/13 05:15:22;;;;;;;;;;;;;;;23.17;61.59;99247.69;4916572;29;20018;-80
2021/09/13 05:17:58;;;;;;;;;;;;;;;23.06;60.29;99254.72;4897749;29;19966;-77
2021/09/13 05:20:34;;;;;;;;;;;;;;;23.17;60.33;99239.72;4878067;29;19927;-78
2021/09/13 05:23:06;;;;;;;;;;;;;;;23.24;59.75;99245.47;4892694;29;19923;-77
2021/09/13 05:25:32;;;;;;;;;;;;;;;23.56;59.18;99241.50;4893407;29;20021;-78
2021/09/13 05:27:58;;;;;;;;;;;;;;;23.41;58.50;99244.28;4878634;29;20391;-77
2021/09/13 05:30:23;;;;;;;;;;;;;;;22.51;58.04;99220.44;4892323;29;19926;-78
2021/09/13 05:32:49;;;;;;;;;;;;;;;22.09;59.39;99247.00;4880055;29;19918;-77
2021/09/13 05:35:15;;;;;;;;;;;;;;;21.78;59.96;99251.63;4891551;29;20553;-77
2021/09/13 05:37:42;;;;;;;;;;;;;;;21.61;59.86;99248.28;4895421;29;20319;-78
2021/09/13 05:40:08;;;;;;;;;;;;;;;21.42;59.40;99240.59;4863598;29;19926;-77
2021/09/13 05:42:37;;;;;;;;;;;;;;;21.22;60.00;99240.06;4909893;29;20389;-80
2021/09/13 05:45:06;;;;;;;;;;;;;;;20.95;60.70;99242.63;4891054;29;21097;-79
2021/09/13 05:47:42;;;;;;;;;;;;;;;20.68;60.80;99251.22;4863168;29;20486;-79
2021/09/13 05:50:08;;;;;;;;;;;;;;;20.48;60.66;99239.22;4890914;29;20129;-78
2021/09/13 05:52:35;;;;;;;;;;;;;;;20.21;60.96;99245.16;4874777;29;19919;-76
2021/09/13 05:55:06;;;;;;;;;;;;;;;19.98;61.51;99239.41;4899554;29;19954;-78
2021/09/13 05:57:41;;;;;;;;;;;;;;;19.65;61.50;99242.97;4907747;29;20030;-76
2021/09/13 06:00:07;;;;;;;;;;;;;;;19.32;61.97;99245.66;4878314;29;19962;-78
2021/09/13 06:02:40;;;;;;;;;;;;;;;19.07;62.49;99250.47;4909629;29;20391;-76
2021/09/13 06:05:32;;;;;;;;;;;;;;;18.88;62.99;99244.44;4875266;29;19927;-79
2021/09/13 06:08:05;;;;;;;;;;;;;;;18.84;63.56;99242.88;4878606;29;20430;-79
2021/09/13 06:10:37;;;;;;;;;;;;;;;18.88;63.46;99239.16;4904686;29;19926;-78
2021/09/13 06:13:03;;;;;;;;;;;;;;;18.85;63.83;99245.47;4893519;29;19919;-79
2021/09/13 06:15:32;;;;;;;;;;;;;;;18.93;64.04;99242.41;4875898;29;20294;-78
2021/09/13 06:18:01;;;;;;;;;;;;;;;18.98;63.81;99248.31;4890759;29;20441;-78
2021/09/13 06:20:27;;;;;;;;;;;;;;;19.08;64.06;99252.19;4878192;29;19919;-77
2021/09/13 06:22:54;;;;;;;;;;;;;;;19.36;63.97;99241.94;4877049;29;20064;-77
2021/09/13 06:25:28;;;;;;;;;;;;;;;20.00;63.84;99241.97;4892586;29;19930;-76
2021/09/13 06:27:55;;;;;;;;;;;;;;;20.72;63.39;99234.25;4908690;29;19919;-78
2021/09/13 06:30:27;;;;;;;;;;;;;;;21.46;63.47;99210.38;4894297;29;19919;-80
2021/09/13 06:33:02;;;;;;;;;;;;;;;22.55;61.58;99236.03;4859509;29;20448;-77
2021/09/13 06:35:34;;;;;;;;;;;;;;;23.89;59.48;99227.56;4864749;29;20291;-77
2021/09/13 06:38:30;;;;;;;;;;;;;;;24.52;58.35;99234.50;4909484;29;19943;-81
2021/09/13 06:41:23;;;;;;;;;;;;;;;25.33;56.55;99222.97;4892019;29;19926;-81
2021/09/13 06:43:49;;;;;;;;;;;;;;;26.94;55.39;99215.09;4873802;29;19931;-77
2021/09/13 06:46:33;;;;;;;;;;;;;;;28.72;53.93;99211.69;4866802;29;19974;-79
2021/09/13 06:49:23;;;;;;;;;;;;;;;30.05;50.58;99208.78;4878700;29;19923;-81
2021/09/13 06:52:14;;;;;;;;;;;;;;;31.37;47.69;99198.06;4896751;29;19974;-80
2021/09/13 06:54:43;;;;;;;;;;;;;;;31.10;46.09;99198.09;4876275;29;19926;-81
2021/09/13 06:57:29;;;;;;;;;;;;;;;30.22;46.31;99198.22;4909568;29;19927;-79
2021/09/13 07:00:00;;;;;;;;;;;;;;;29.21;47.58;99208.00;4896155;29;19927;-78
2021/09/13 07:02:32;;;;;;;;;;;;;;;28.10;48.04;99207.53;4892393;29;19995;-78
2021/09/13 07:05:00;;;;;;;;;;;;;;;27.30;50.02;99204.84;4861426;29;19923;-80
2021/09/13 07:07:31;;;;;;;;;;;;;;;26.80;50.25;99213.63;4862277;29;19918;-78
2021/09/13 07:09:57;;;;;;;;;;;;;;;26.37;50.56;99219.94;4895807;29;19971;-76
2021/09/13 07:12:32;;;;;;;;;;;;;;;25.78;50.83;99217.59;4867497;29;20021;-77
2021/09/13 07:15:19;;;;;;;;;;;;;;;25.13;51.53;99216.59;4879606;29;19927;-78
2021/09/13 07:18:15;;;;;;;;;;;;;;;24.82;52.41;99209.19;4867901;29;19919;-78
2021/09/13 07:20:44;;;;;;;;;;;;;;;24.80;52.44;99211.13;4883161;29;19994;-78
2021/09/13 07:23:10;;;;;;;;;;;;;;;24.86;52.44;99176.03;4896508;29;19903;-81
2021/09/13 07:25:51;;;;;;;;;;;;;;;24.94;51.12;99213.53;4894955;29;20050;-78
2021/09/13 07:28:37;;;;;;;;;;;;;;;25.01;51.30;99210.41;4874538;29;20058;-77
2021/09/13 07:31:03;;;;;;;;;;;;;;;25.04;50.70;99202.19;4860760;29;19930;-78
2021/09/13 07:33:29;;;;;;;;;;;;;;;25.09;51.55;99205.31;4874956;29;20287;-78
2021/09/13 07:35:55;;;;;;;;;;;;;;;26.24;49.70;99204.97;4870547;29;19931;-76
2021/09/13 07:38:21;;;;;;;;;;;;;;;27.05;49.02;99188.31;4886707;29;19923;-79
2021/09/13 07:40:46;;;;;;;;;;;;;;;27.48;47.31;99181.03;4865413;29;19983;-78
2021/09/13 07:43:12;;;;;;;;;;;;;;;28.01;47.04;99180.78;4879230;29;19923;-77
2021/09/13 07:45:41;;;;;;;;;;;;;;;29.66;45.30;99152.75;4883315;29;19939;-78
2021/09/13 07:48:08;;;;;;;;;;;;;;;31.72;44.67;99161.19;4899106;29;19923;-78
2021/09/13 07:50:34;;;;;;;;;;;;;;;33.47;40.69;99157.16;4898143;29;19910;-79
2021/09/13 07:53:10;;;;;;;;;;;;;;;34.45;38.19;99151.16;4887792;29;19919;-78
2021/09/13 07:55:39;;;;;;;;;;;;;;;34.98;36.83;99151.09;4918864;29;19922;-79
2021/09/13 07:58:09;;;;;;;;;;;;;;;35.85;36.37;99148.53;4907006;29;19918;-78
2021/09/13 08:00:40;;;;;;;;;;;;;;;37.02;35.21;99139.97;4884897;29;19933;-77
2021/09/13 08:03:06;;;;;;;;;;;;;;;37.70;32.55;99144.56;4899879;29;19919;-79
2021/09/13 08:05:53;;;;;;;;;;;;;;;37.51;33.56;99147.03;4898006;29;19919;-78
2021/09/13 08:08:36;;;;;;;;;;;;;;;37.02;32.56;99116.44;4901064;29;19998;-79
2021/09/13 08:11:03;;;;;;;;;;;;;;;37.94;31.68;99147.75;4909549;29;20022;-78
2021/09/13 08:13:31;;;;;;;;;;;;;;;37.74;30.60;99132.25;4911612;29;20018;-79
2021/09/13 08:15:57;;;;;;;;;;;;;;;38.24;30.01;99128.31;4907302;29;19995;-80
2021/09/13 08:18:31;;;;;;;;;;;;;;;38.90;29.48;99125.66;4916681;29;19918;-81
2021/09/13 08:20:57;;;;;;;;;;;;;;;39.97;28.10;99125.03;4892243;29;20438;-80
2021/09/13 08:23:23;;;;;;;;;;;;;;;40.50;27.46;99120.16;4873846;29;20279;-77
2021/09/13 08:25:50;;;;;;;;;;;;;;;40.61;27.21;99119.38;4903772;29;20310;-77
2021/09/13 08:28:25;;;;;;;;;;;;;;;40.43;27.10;99112.06;4890715;29;19986;-78
2021/09/13 08:30:50;;;;;;;;;;;;;;;40.63;26.19;99117.25;4902501;29;19919;-77
2021/09/13 08:33:19;;;;;;;;;;;;;;;41.65;26.19;99114.91;4857668;29;19927;-76
2021/09/13 08:35:46;;;;;;;;;;;;;;;42.36;25.11;99113.28;4902650;29;20260;-77
2021/09/13 08:38:24;;;;;;;;;;;;;;;42.74;24.60;99104.56;4888643;29;19923;-76
2021/09/13 08:40:54;;;;;;;;;;;;;;;43.24;23.63;99106.91;4875870;29;19927;-77
2021/09/13 08:43:28;;;;;;;;;;;;;;;43.35;23.02;99100.53;4895581;29;19919;-78
2021/09/13 08:48:36;;;;;;;;;;;;;;;42.83;23.20;99095.97;4880202;29;20025;-79
2021/09/13 08:51:17;;;;;;;;;;;;;;;42.23;22.74;99090.63;4906620;29;21443;-78
2021/09/13 08:53:53;;;;;;;;;;;;;;;41.77;23.39;99089.53;4889882;29;19927;-77
2021/09/13 08:56:19;;;;;;;;;;;;;;;41.92;23.00;99089.88;4890196;29;19919;-77
2021/09/13 08:58:46;;;;;;;;;;;;;;;42.45;23.00;99090.84;4905929;29;19926;-76
2021/09/13 09:01:12;;;;;;;;;;;;;;;42.26;22.89;99092.03;4904500;29;20332;-76
2021/09/13 09:03:39;;;;;;;;;;;;;;;42.29;21.69;99084.16;4890712;29;19926;-76
2021/09/13 09:06:05;;;;;;;;;;;;;;;42.68;21.81;99075.44;4905451;29;20335;-76
2021/09/13 09:08:36;;;;;;;;;;;;;;;43.04;20.98;99070.69;4906658;29;19982;-78
2021/09/13 09:11:05;;;;;;;;;;;;;;;42.68;20.94;99078.19;4893932;29;20474;-79
2021/09/13 09:13:38;;;;;;;;;;;;;;;42.29;20.98;99075.97;4907320;29;19971;-78
2021/09/13 09:16:05;;;;;;;;;;;;;;;42.17;21.20;99063.41;4887243;29;19930;-78
2021/09/13 09:18:38;;;;;;;;;;;;;;;41.80;20.93;99069.94;4891086;29;19919;-76
2021/09/13 09:21:04;;;;;;;;;;;;;;;41.51;20.76;99059.66;4892201;29;19926;-76
2021/09/13 09:23:30;;;;;;;;;;;;;;;41.16;21.08;99056.88;4891074;29;19919;-76
2021/09/13 09:26:09;;;;;;;;;;;;;;;40.59;20.55;99064.28;4921563;29;19919;-76
2021/09/13 09:28:35;;;;;;;;;;;;;;;39.15;21.68;99047.72;4929278;29;19971;-77
2021/09/13 09:31:00;;;;;;;;;;;;;;;38.20;22.32;99056.47;4918357;29;19926;-77
2021/09/13 09:33:26;;;;;;;;;;;;;;;38.23;22.58;99047.91;4888712;29;19931;-76
2021/09/13 09:35:54;;;;;;;;;;;;;;;38.23;21.83;99047.91;4894579;29;19974;-77
2021/09/13 09:38:36;;;;;;;;;;;;;;;38.55;21.51;99040.72;4891823;29;19919;-77
2021/09/13 09:41:03;;;;;;;;;;;;;;;39.15;20.99;99033.31;4878403;29;19962;-77
2021/09/13 09:43:30;;;;;;;;;;;;;;;40.16;20.15;99035.22;4890638;29;19922;-76
2021/09/13 09:45:57;;;;;;;;;;;;;;;40.68;19.84;99020.38;4906719;29;19930;-78
2021/09/13 09:48:32;;;;;;;;;;;;;;;39.90;20.22;99031.72;4893244;29;19941;-77
2021/09/13 09:50:58;;;;;;;;;;;;;;;39.71;20.52;99037.09;4907039;29;19924;-77
2021/09/13 09:53:29;;;;;;;;;;;;;;;40.30;20.59;99025.00;4890307;29;20414;-78
2021/09/13 09:56:08;;;;;;;;;;;;;;;40.57;19.84;99021.97;4893786;29;19926;-78
2021/09/13 09:58:34;;;;;;;;;;;;;;;39.19;20.77;99020.94;4907608;29;19926;-77
2021/09/13 10:01:00;;;;;;;;;;;;;;;38.46;21.09;99027.59;4891441;29;20247;-76
2021/09/13 10:03:29;;;;;;;;;;;;;;;38.06;20.78;99023.94;4907293;29;20381;-79
2021/09/13 10:05:58;;;;;;;;;;;;;;;37.98;20.88;99021.44;4878071;29;19994;-77
2021/09/13 10:08:25;;;;;;;;;;;;;;;37.52;20.66;99021.22;4906854;29;19925;-77
2021/09/13 10:10:50;;;;;;;;;;;;;;;37.12;20.61;99017.63;4874894;29;19923;-77
2021/09/13 10:13:19;;;;;;;;;;;;;;;36.06;20.69;99027.78;4879869;29;20029;-79
2021/09/13 10:15:44;;;;;;;;;;;;;;;34.34;22.13;99028.25;4889659;29;19994;-78
2021/09/13 10:18:10;;;;;;;;;;;;;;;33.17;23.01;99016.84;4904494;29;20394;-79
2021/09/13 10:20:35;;;;;;;;;;;;;;;32.13;23.81;99029.38;4892733;29;19926;-79
2021/09/13 10:23:01;;;;;;;;;;;;;;;31.31;24.95;99029.44;4875594;29;19926;-78
2021/09/13 10:25:31;;;;;;;;;;;;;;;30.85;25.92;99019.94;4900336;29;20007;-75
2021/09/13 10:28:05;;;;;;;;;;;;;;;30.45;25.86;99021.44;4902967;29;19923;-77
2021/09/13 10:30:31;;;;;;;;;;;;;;;30.01;26.13;99015.19;4870685;29;19919;-77
2021/09/13 10:33:13;;;;;;;;;;;;;;;29.56;27.03;99021.53;4902210;29;20438;-79
2021/09/13 10:35:52;;;;;;;;;;;;;;;29.00;27.37;99017.16;4869799;29;19923;-78
2021/09/13 10:38:39;;;;;;;;;;;;;;;28.41;27.92;99017.47;4906432;29;20482;-78
2021/09/13 10:41:05;;;;;;;;;;;;;;;28.00;28.65;99016.88;4890383;29;19941;-77
2021/09/13 10:43:30;;;;;;;;;;;;;;;27.66;28.72;99022.72;4889541;29;20403;-78
2021/09/13 10:45:56;;;;;;;;;;;;;;;27.46;29.15;99014.72;4884211;29;20015;-78
2021/09/13 10:48:22;;;;;;;;;;;;;;;27.36;29.13;99020.03;4900714;29;19989;-77
2021/09/13 10:50:50;;;;;;;;;;;;;;;27.36;29.29;99005.84;4905738;29;19981;-77
2021/09/13 10:53:16;;;;;;;;;;;;;;;27.18;29.65;99009.19;4906534;29;20007;-77
2021/09/13 10:55:43;;;;;;;;;;;;;;;26.94;29.95;99006.94;4890826;29;20406;-75
2021/09/13 10:58:12;;;;;;;;;;;;;;;26.86;30.38;98993.44;4888160;29;19931;-78
2021/09/13 11:00:42;;;;;;;;;;;;;;;26.81;30.14;99001.03;4869421;29;19923;-78
2021/09/13 11:03:31;;;;;;;;;;;;;;;26.71;30.70;98996.47;4886767;29;19923;-78
2021/09/13 11:06:06;;;;;;;;;;;;;;;26.54;30.42;99002.47;4878958;29;20009;-78
2021/09/13 11:08:52;;;;;;;;;;;;;;;26.48;31.25;99001.19;4909363;29;19987;-79
2021/09/13 11:11:31;;;;;;;;;;;;;;;26.38;30.77;98987.81;4885271;29;19970;-77
2021/09/13 11:14:01;;;;;;;;;;;;;;;26.30;30.89;98993.81;4897257;29;19927;-77
2021/09/13 11:16:29;;;;;;;;;;;;;;;26.32;31.38;98993.69;4907162;29;19923;-77
2021/09/13 11:19:03;;;;;;;;;;;;;;;26.33;31.48;98982.06;4883633;29;19930;-78
2021/09/13 11:21:28;;;;;;;;;;;;;;;26.43;31.71;98998.91;4890669;29;19919;-77
2021/09/13 11:23:55;;;;;;;;;;;;;;;26.64;31.14;98990.00;4880335;29;19925;-78
2021/09/13 11:26:28;;;;;;;;;;;;;;;26.72;31.58;98991.97;4894754;29;19923;-78
2021/09/13 11:28:56;;;;;;;;;;;;;;;26.60;31.76;98983.22;4909747;29;19994;-77
2021/09/13 11:31:27;;;;;;;;;;;;;;;26.33;31.99;98987.38;4894450;29;19926;-77
2021/09/13 11:33:55;;;;;;;;;;;;;;;26.22;32.35;98990.13;4927416;29;19921;-77
2021/09/13 11:36:24;;;;;;;;;;;;;;;26.25;31.97;98995.19;4910819;29;20646;-77
2021/09/13 11:39:09;;;;;;;;;;;;;;;26.17;32.55;98980.72;4909120;29;19930;-78
2021/09/13 11:41:36;;;;;;;;;;;;;;;26.10;32.89;98966.22;4878560;29;19986;-77
2021/09/13 11:44:07;;;;;;;;;;;;;;;25.99;33.39;98968.94;4890467;29;19919;-77
2021/09/13 11:46:53;;;;;;;;;;;;;;;25.89;33.68;98978.75;4893198;29;19925;-80
2021/09/13 11:49:22;;;;;;;;;;;;;;;25.66;33.94;98974.38;4876646;29;19930;-78
2021/09/13 11:52:32;;;;;;;;;;;;;;;;;;;;;
2021/09/13 11:55:06;;;;;;;;;;;;;;;25.62;34.55;98964.97;4900920;29;20014;-75
2021/09/13 11:57:54;;;;;;;;;;;;;;;25.74;34.31;98963.06;4866137;29;19919;-78
2021/09/13 12:00:21;;;;;;;;;;;;;;;25.71;34.23;98961.53;4893759;29;19954;-78
2021/09/13 12:03:01;;;;;;;;;;;;;;;25.63;34.58;98964.00;4895189;29;19926;-77
2021/09/13 12:05:37;;;;;;;;;;;;;;;25.54;34.75;98968.28;4863950;29;19966;-77
2021/09/13 12:08:06;;;;;;;;;;;;;;;25.39;34.95;98966.91;4894408;29;20009;-77
2021/09/13 12:10:39;;;;;;;;;;;;;;;25.32;34.94;98958.59;4888868;29;19922;-79
2021/09/13 12:13:09;;;;;;;;;;;;;;;25.20;34.86;98968.44;4894521;29;19923;-78
2021/09/13 12:15:35;;;;;;;;;;;;;;;25.10;35.48;98968.34;4915646;29;19923;-78
2021/09/13 12:18:05;;;;;;;;;;;;;;;24.96;35.48;98965.97;4894163;29;19927;-79
2021/09/13 12:20:43;;;;;;;;;;;;;;;24.84;35.58;98959.84;4899869;29;20367;-76
2021/09/13 12:23:10;;;;;;;;;;;;;;;24.69;35.91;98958.41;4885548;29;19920;-76
2021/09/13 12:25:45;;;;;;;;;;;;;;;24.57;36.15;98958.44;4898277;29;20439;-77
2021/09/13 12:28:12;;;;;;;;;;;;;;;24.46;36.49;98958.44;4900780;29;19941;-77
2021/09/13 12:30:41;;;;;;;;;;;;;;;24.36;36.67;98951.22;4917774;29;20375;-79
2021/09/13 12:33:10;;;;;;;;;;;;;;;24.34;36.83;98952.31;4881637;29;20295;-78
2021/09/13 12:35:42;;;;;;;;;;;;;;;24.24;37.12;98946.88;4864526;29;19919;-77
2021/09/13 12:38:08;;;;;;;;;;;;;;;24.16;37.21;98950.16;4892518;29;19951;-78
2021/09/13 12:40:46;;;;;;;;;;;;;;;24.13;37.31;98939.75;4880549;29;19922;-80
2021/09/13 12:43:33;;;;;;;;;;;;;;;24.19;37.34;98939.28;4891680;29;20415;-78
2021/09/13 12:46:05;;;;;;;;;;;;;;;24.26;37.38;98936.16;4872287;29;19923;-80
2021/09/13 12:48:32;;;;;;;;;;;;;;;24.29;37.29;98933.22;4887451;29;19919;-77
2021/09/13 12:50:58;;;;;;;;;;;;;;;24.30;37.38;98940.22;4874754;29;20002;-78
2021/09/13 12:53:28;;;;;;;;;;;;;;;24.26;37.54;98926.34;4856152;29;19927;-77
2021/09/13 12:55:55;;;;;;;;;;;;;;;24.22;37.70;98922.22;4900418;29;19919;-76
2021/09/13 12:58:21;;;;;;;;;;;;;;;24.12;37.76;98922.13;4904700;29;20019;-79
2021/09/13 13:00:50;;;;;;;;;;;;;;;24.04;37.88;98919.25;4901075;29;19923;-77
2021/09/13 13:03:15;;;;;;;;;;;;;;;23.96;37.94;98924.28;4903508;29;20010;-77
2021/09/13 13:05:53;;;;;;;;;;;;;;;23.88;38.49;98914.25;4889486;29;20073;-78
2021/09/13 13:08:19;;;;;;;;;;;;;;;23.70;38.67;98914.75;4904811;29;19923;-77